Time;durP1;ratioP1;P1;durP2;ratioP2;P2;SDS_P1;SDS_P2;PMS_P1;PMS_P2;Temp;Humidity;BMP_temperature;BMP_pressure;BME280_temperature;BME280_humidity;BME280_pressure;Samples;Min_cycle;Max_cycle;Signal;HPM_P1;HPM_P2
2023/08/26 00:01:51;;;;;;;2.17;1.73;;;;;;;24.10;100.00;99474.97;5012462;28;20051;-94
2023/08/26 00:04:17;;;;;;;1.75;1.10;;;;;;;24.18;100.00;99487.19;5022551;28;20029;-93
2023/08/26 00:06:42;;;;;;;3.35;1.58;;;;;;;24.11;100.00;99480.06;5009430;28;20041;-95
2023/08/26 00:09:08;;;;;;;1.75;1.10;;;;;;;24.07;100.00;99479.63;5021290;28;20173;-94
2023/08/26 00:11:33;;;;;;;0.80;0.77;;;;;;;23.97;100.00;99472.88;5012576;28;20036;-93
2023/08/26 00:13:59;;;;;;;2.08;1.98;;;;;;;23.96;100.00;99479.84;5012703;28;20033;-94
2023/08/26 00:16:25;;;;;;;1.83;1.35;;;;;;;23.97;100.00;99478.53;5025528;28;20044;-93
2023/08/26 00:18:50;;;;;;;1.58;1.40;;;;;;;23.89;100.00;99469.16;5028357;28;20090;-93
2023/08/26 00:21:21;;;;;;;1.77;1.58;;;;;;;23.93;100.00;99463.16;5013967;28;20397;-94
2023/08/26 00:23:46;;;;;;;1.63;1.52;;;;;;;23.83;100.00;99457.16;5017873;28;20043;-95
2023/08/26 00:26:12;;;;;;;1.33;1.23;;;;;;;23.90;100.00;99470.66;5028620;28;20119;-94
2023/08/26 00:28:38;;;;;;;2.15;1.95;;;;;;;23.80;100.00;99458.25;5019373;28;20032;-94
2023/08/26 00:31:05;;;;;;;2.60;1.90;;;;;;;23.89;100.00;99483.31;5005256;28;20521;-96
2023/08/26 00:33:30;;;;;;;1.88;1.33;;;;;;;23.77;100.00;99467.06;5014408;28;20094;-94
2023/08/26 00:35:56;;;;;;;10.82;1.60;;;;;;;23.80;100.00;99480.91;5019684;28;20040;-94
2023/08/26 00:38:22;;;;;;;0.93;0.93;;;;;;;23.71;100.00;99472.81;5009687;28;20111;-94
2023/08/26 00:40:48;;;;;;;1.08;1.05;;;;;;;23.68;100.00;99465.41;5026089;28;20021;-94
2023/08/26 00:43:14;;;;;;;2.15;1.95;;;;;;;23.58;100.00;99467.13;5029923;28;20504;-95
2023/08/26 00:45:42;;;;;;;2.40;1.77;;;;;;;23.65;100.00;99483.50;5007179;28;20028;-95
2023/08/26 00:48:11;;;;;;;1.13;1.02;;;;;;;23.62;100.00;99479.66;5025149;28;20041;-93
2023/08/26 00:50:41;;;;;;;1.02;0.85;;;;;;;23.62;100.00;99474.00;5023942;28;20033;-94
2023/08/26 00:53:07;;;;;;;1.85;1.73;;;;;;;23.47;100.00;99461.66;5024662;28;20045;-94
2023/08/26 00:55:33;;;;;;;1.30;1.20;;;;;;;23.63;100.00;99477.59;5014568;28;20172;-94
2023/08/26 00:57:58;;;;;;;1.73;1.63;;;;;;;23.65;100.00;99480.66;5030934;28;20472;-94
2023/08/26 01:03:07;;;;;;;1.05;1.00;;;;;;;23.53;100.00;99459.50;5130785;23;20437;-88
2023/08/26 01:05:36;;;;;;;1.42;1.33;;;;;;;23.44;100.00;99445.75;4971710;28;20029;-89
2023/08/26 01:08:03;;;;;;;1.27;1.08;;;;;;;23.58;100.00;99452.97;4992942;28;20061;-87
2023/08/26 01:10:51;;;;;;;0.63;0.63;;;;;;;23.51;100.00;99451.53;4974928;28;20033;-89
2023/08/26 01:13:22;;;;;;;1.90;1.77;;;;;;;23.52;100.00;99446.66;4983650;28;20487;-88
2023/08/26 01:15:49;;;;;;;1.58;1.48;;;;;;;23.53;100.00;99445.34;4980978;28;20563;-88
2023/08/26 01:18:15;;;;;;;1.80;1.65;;;;;;;23.55;100.00;99456.88;4992359;28;20108;-96
2023/08/26 01:20:45;;;;;;;1.58;1.48;;;;;;;23.44;100.00;99445.75;4978492;28;20120;-89
2023/08/26 01:23:32;;;;;;;2.60;2.20;;;;;;;23.29;100.00;99429.25;4974229;28;20384;-89
2023/08/26 01:25:59;;;;;;;1.13;0.73;;;;;;;23.16;100.00;99415.84;4991623;28;20071;-88
2023/08/26 01:28:26;;;;;;;5.13;1.42;;;;;;;23.33;100.00;99434.59;4988982;28;20083;-89
2023/08/26 01:30:52;;;;;;;1.10;0.98;;;;;;;23.19;100.00;99426.06;4968777;28;20018;-89
2023/08/26 01:33:24;;;;;;;1.38;0.82;;;;;;;23.21;100.00;99429.09;4971908;28;20434;-89
2023/08/26 01:35:53;;;;;;;1.45;1.17;;;;;;;23.20;100.00;99436.09;4974697;28;20026;-89
2023/08/26 01:38:19;;;;;;;1.10;1.00;;;;;;;23.18;100.00;99435.09;4961521;28;20032;-89
2023/08/26 01:40:53;;;;;;;3.10;2.58;;;;;;;23.09;100.00;99413.59;4972430;28;20169;-89
2023/08/26 01:43:20;;;;;;;2.28;1.83;;;;;;;23.09;100.00;99415.69;4978035;28;20076;-89
2023/08/26 01:45:46;;;;;;;1.92;1.73;;;;;;;23.20;100.00;99421.94;4974338;28;20180;-89
2023/08/26 01:48:12;;;;;;;2.58;2.00;;;;;;;23.23;100.00;99437.84;4969714;28;20498;-88
2023/08/26 01:50:40;;;;;;;1.08;0.95;;;;;;;23.21;100.00;99434.75;4971774;28;20120;-89
2023/08/26 01:53:08;;;;;;;2.17;1.95;;;;;;;23.14;100.00;99418.41;4977418;28;20033;-89
2023/08/26 01:55:34;;;;;;;1.38;1.27;;;;;;;23.13;100.00;99421.81;4987987;28;20065;-90
2023/08/26 01:58:01;;;;;;;3.55;1.77;;;;;;;23.13;100.00;99422.53;4968365;28;20037;-89
2023/08/26 02:00:27;;;;;;;1.73;1.42;;;;;;;23.19;100.00;99433.78;4974350;28;20026;-89
2023/08/26 02:02:52;;;;;;;2.13;1.92;;;;;;;23.07;100.00;99413.41;4993686;28;20058;-89
2023/08/26 02:05:18;;;;;;;1.92;1.73;;;;;;;23.13;100.00;99411.22;4975631;28;20041;-94
2023/08/26 02:07:44;;;;;;;3.92;2.47;;;;;;;23.11;100.00;99425.16;4990655;28;20057;-90
2023/08/26 02:10:10;;;;;;;2.00;1.90;;;;;;;23.09;100.00;99415.69;4988981;28;20026;-89
2023/08/26 02:12:36;;;;;;;1.23;1.10;;;;;;;23.00;100.00;99397.06;4987720;28;20038;-89
2023/08/26 02:15:02;;;;;;;1.50;1.40;;;;;;;23.21;100.00;99425.53;4971830;28;20089;-89
2023/08/26 02:17:29;;;;;;;3.15;0.98;;;;;;;23.03;100.00;99406.53;4973484;28;20041;-88
2023/08/26 02:19:54;;;;;;;2.30;1.48;;;;;;;23.07;100.00;99407.75;4988307;28;20391;-89
2023/08/26 02:22:20;;;;;;;2.60;2.38;;;;;;;23.00;100.00;99393.47;4989788;28;20038;-96
2023/08/26 02:24:46;;;;;;;2.00;1.02;;;;;;;23.06;100.00;99406.22;4964339;28;20484;-94
2023/08/26 02:27:13;;;;;;;2.33;1.45;;;;;;;22.96;100.00;99388.13;4985136;28;20038;-96
2023/08/26 02:29:38;;;;;;;4.38;2.55;;;;;;;23.00;100.00;99408.38;4968587;28;20484;-96
2023/08/26 02:32:04;;;;;;;1.92;1.70;;;;;;;23.03;100.00;99417.84;4982244;28;20121;-96
2023/08/26 02:34:30;;;;;;;2.17;1.67;;;;;;;23.02;100.00;99417.06;4963108;28;20022;-96
2023/08/26 02:36:56;;;;;;;2.15;1.92;;;;;;;22.92;100.00;99393.34;4983373;28;20144;-96
2023/08/26 02:39:21;;;;;;;1.02;0.93;;;;;;;23.03;100.00;99418.59;4965980;28;20042;-96
2023/08/26 02:41:47;;;;;;;1.08;0.95;;;;;;;22.82;100.00;99378.06;4966577;28;20042;-95
2023/08/26 02:44:12;;;;;;;1.13;1.02;;;;;;;23.01;100.00;99412.72;4964609;28;20034;-96
2023/08/26 02:46:38;;;;;;;1.52;1.42;;;;;;;23.03;100.00;99406.53;4969176;28;20045;-96
2023/08/26 02:49:04;;;;;;;1.77;1.52;;;;;;;22.97;100.00;99409.44;4966268;28;20037;-95
2023/08/26 02:51:31;;;;;;;2.03;1.75;;;;;;;22.98;100.00;99405.31;4981257;28;20038;-96
2023/08/26 02:53:56;;;;;;;2.78;2.08;;;;;;;22.96;100.00;99401.50;4965257;28;20057;-96
2023/08/26 02:56:22;;;;;;;1.67;1.48;;;;;;;23.04;100.00;99422.97;4973094;28;20125;-96
2023/08/26 02:58:47;;;;;;;2.60;1.50;;;;;;;22.99;100.00;99398.34;4958167;28;20027;-95
2023/08/26 03:01:16;;;;;;;3.95;3.22;;;;;;;23.07;100.00;99402.09;4946900;28;20035;-96
2023/08/26 03:03:42;;;;;;;1.58;1.48;;;;;;;23.09;100.00;99405.13;4961804;28;20066;-95
2023/08/26 03:06:08;;;;;;;3.58;1.95;;;;;;;23.10;100.00;99405.88;4978435;28;20038;-96
2023/08/26 03:08:33;;;;;;;1.45;1.35;;;;;;;23.21;100.00;99412.13;4963515;28;20053;-95
2023/08/26 03:11:01;;;;;;;2.58;2.38;;;;;;;23.14;100.00;99400.69;4963510;28;20026;-90
2023/08/26 03:13:27;;;;;;;1.50;1.33;;;;;;;23.06;100.00;99394.91;4987843;28;20061;-89
2023/08/26 03:15:53;;;;;;;1.90;1.80;;;;;;;23.14;100.00;99412.75;4985639;28;20488;-90
2023/08/26 03:18:18;;;;;;;1.85;1.75;;;;;;;23.05;100.00;99404.69;4949912;28;20133;-90
2023/08/26 03:20:44;;;;;;;1.25;1.15;;;;;;;23.00;100.00;99401.94;4972475;28;20066;-89
2023/08/26 03:23:10;;;;;;;5.65;1.40;;;;;;;22.90;100.00;99387.44;4986584;28;20129;-89
2023/08/26 03:25:39;;;;;;;1.60;1.33;;;;;;;22.98;100.00;99399.66;4971423;28;20026;-90
2023/08/26 03:28:05;;;;;;;2.50;2.25;;;;;;;22.88;100.00;99395.72;4990894;28;20038;-96
2023/08/26 03:30:31;;;;;;;2.08;1.70;;;;;;;22.75;100.00;99387.16;4963406;28;20043;-94
2023/08/26 03:32:57;;;;;;;1.38;1.30;;;;;;;22.78;100.00;99388.91;4966689;28;20070;-95
2023/08/26 03:35:24;;;;;;;1.52;1.42;;;;;;;22.75;100.00;99381.50;4964843;28;20027;-96
2023/08/26 03:37:50;;;;;;;2.75;2.15;;;;;;;22.86;100.00;99401.13;4965546;28;20019;-96
2023/08/26 03:40:15;;;;;;;1.52;1.17;;;;;;;22.85;100.00;99396.75;4958848;28;20049;-95
2023/08/26 03:42:41;;;;;;;1.73;1.63;;;;;;;22.87;100.00;99399.81;4982633;28;20070;-96
2023/08/26 03:45:08;;;;;;;1.48;1.38;;;;;;;22.89;100.00;99407.78;4965992;28;20026;-96
2023/08/26 03:47:33;;;;;;;1.45;1.35;;;;;;;22.75;100.00;99398.47;4963527;28;20100;-95
2023/08/26 03:50:00;;;;;;;2.55;2.33;;;;;;;22.73;100.00;99401.06;4965740;28;20030;-96
2023/08/26 03:52:25;;;;;;;2.58;2.03;;;;;;;22.71;100.00;99403.66;4962072;28;20097;-95
2023/08/26 03:54:51;;;;;;;1.05;0.98;;;;;;;22.74;100.00;99408.25;4974804;28;20027;-95
2023/08/26 03:57:17;;;;;;;1.67;1.58;;;;;;;22.77;100.00;99410.00;4959104;28;20035;-89
2023/08/26 03:59:43;;;;;;;1.98;1.83;;;;;;;22.71;100.00;99404.44;4985702;28;20026;-89
2023/08/26 04:02:09;;;;;;;1.98;1.77;;;;;;;22.71;100.00;99404.44;4986232;28;20030;-89
2023/08/26 04:04:35;;;;;;;1.75;1.42;;;;;;;22.75;100.00;99412.59;4968989;28;20050;-89
2023/08/26 04:07:00;;;;;;;4.65;1.73;;;;;;;22.86;100.00;99429.41;4987515;28;20081;-90
2023/08/26 04:09:26;;;;;;;2.63;1.75;;;;;;;22.65;100.00;99405.75;4987341;28;20049;-89
2023/08/26 04:11:51;;;;;;;5.22;3.25;;;;;;;22.71;100.00;99421.41;4966013;28;20026;-89
2023/08/26 04:14:19;;;;;;;1.73;1.48;;;;;;;22.68;100.00;99416.03;4985892;28;20046;-89
2023/08/26 04:16:44;;;;;;;3.05;2.70;;;;;;;22.74;100.00;99419.56;4982256;28;20030;-89
2023/08/26 04:19:14;;;;;;;1.13;1.05;;;;;;;22.80;100.00;99423.06;4963674;28;20034;-90
2023/08/26 04:21:39;;;;;;;4.25;2.10;;;;;;;22.84;100.00;99431.25;4986060;28;20444;-89
2023/08/26 04:24:05;;;;;;;2.45;1.95;;;;;;;22.77;100.00;99412.81;4984731;28;20076;-89
2023/08/26 04:26:31;;;;;;;2.20;1.38;;;;;;;22.83;100.00;99432.53;4995031;28;20384;-95
2023/08/26 04:28:56;;;;;;;1.58;1.45;;;;;;;22.62;100.00;99401.19;4965510;28;20495;-96
2023/08/26 04:31:22;;;;;;;4.40;2.50;;;;;;;22.67;100.00;99406.78;4982557;28;20034;-96
2023/08/26 04:33:48;;;;;;;21.13;2.65;;;;;;;22.61;100.00;99396.81;4965572;28;21191;-96
2023/08/26 04:36:17;;;;;;;2.28;1.75;;;;;;;22.78;100.00;99420.78;4984903;28;20038;-95
2023/08/26 04:38:45;;;;;;;2.58;2.15;;;;;;;22.75;100.00;99409.78;4970492;28;20484;-96
2023/08/26 04:41:11;;;;;;;4.28;2.35;;;;;;;22.65;100.00;99400.88;4967900;28;20473;-96
2023/08/26 04:43:37;;;;;;;1.73;1.63;;;;;;;22.69;100.00;99411.91;4968569;28;20117;-96
2023/08/26 04:46:03;;;;;;;1.73;1.63;;;;;;;22.76;100.00;99426.22;4967117;28;20038;-95
2023/08/26 04:48:31;;;;;;;1.40;1.30;;;;;;;22.66;100.00;99407.31;4980547;28;20039;-96
2023/08/26 04:50:56;;;;;;;2.42;1.95;;;;;;;22.81;100.00;99416.09;4970157;28;20033;-96
2023/08/26 04:53:23;;;;;;;1.55;1.08;;;;;;;22.76;100.00;99403.59;4972306;28;20038;-96
2023/08/26 04:55:51;;;;;;;3.25;2.30;;;;;;;22.93;100.00;99425.94;4980258;28;20435;-96
2023/08/26 04:58:17;;;;;;;1.88;1.77;;;;;;;22.87;100.00;99416.03;4997317;28;20056;-96
2023/08/26 06:16:52;;;;;;;3.08;1.85;;;;;;;25.76;100.00;99478.28;1444727;26;20045;-90
2023/08/26 06:19:18;;;;;;;1.77;1.67;;;;;;;25.87;100.00;99478.00;5015232;28;20029;-90
2023/08/26 06:21:45;;;;;;;1.25;1.15;;;;;;;26.12;100.00;99503.94;5046825;28;20041;-95
2023/08/26 06:24:10;;;;;;;2.25;1.95;;;;;;;26.30;100.00;99502.94;5063465;28;20025;-95
2023/08/26 06:26:36;;;;;;;3.60;1.98;;;;;;;26.48;100.00;99501.16;5046130;28;20424;-93
2023/08/26 06:29:02;;;;;;;1.27;1.17;;;;;;;26.62;100.00;99509.00;5031789;28;20041;-94
2023/08/26 06:31:28;;;;;;;2.80;2.42;;;;;;;26.69;100.00;99507.53;5029928;28;20037;-94
2023/08/26 06:33:54;;;;;;;4.30;1.50;;;;;;;26.66;100.00;99506.56;5013006;28;20662;-94
2023/08/26 06:36:21;;;;;;;2.00;1.67;;;;;;;26.81;100.00;99515.16;5040151;28;20040;-96
2023/08/26 06:38:46;;;;;;;1.58;1.48;;;;;;;26.83;100.00;99498.28;5027018;28;20048;-95
2023/08/26 06:41:13;;;;;;;3.53;1.63;;;;;;;27.06;100.00;99497.63;5016275;28;20037;-96
2023/08/26 06:43:38;;;;;;;1.45;1.35;;;;;;;27.09;100.00;99496.53;5046418;28;20036;-94
2023/08/26 06:46:04;;;;;;;2.17;1.63;;;;;;;27.28;100.00;99502.63;5032813;28;20064;-95
2023/08/26 06:48:30;;;;;;;2.63;2.42;;;;;;;27.30;100.00;99497.13;5011172;28;20029;-95
2023/08/26 06:50:55;;;;;;;2.15;1.83;;;;;;;27.52;100.00;99499.28;5016955;28;20029;-95
2023/08/26 06:53:21;;;;;;;2.40;2.20;;;;;;;27.71;100.00;99502.53;5048602;28;20033;-94
2023/08/26 06:55:52;;;;;;;3.20;1.58;;;;;;;27.91;100.00;99500.81;5027272;28;20162;-94
2023/08/26 06:58:18;;;;;;;2.03;1.42;;;;;;;28.06;100.00;99511.47;5041413;28;20034;-96
2023/08/26 07:00:44;;;;;;;2.00;1.42;;;;;;;28.20;100.00;99505.00;5040165;28;21724;-96
2023/08/26 07:03:10;;;;;;;3.53;2.78;;;;;;;28.24;100.00;99490.38;5011586;28;20052;-95
2023/08/26 07:05:37;;;;;;;2.42;2.22;;;;;;;28.36;100.00;99494.34;5005659;28;20171;-95
2023/08/26 07:08:04;;;;;;;3.30;2.13;;;;;;;28.23;100.00;99480.28;5048260;28;20040;-95
2023/08/26 07:10:29;;;;;;;1.75;1.63;;;;;;;28.30;100.00;99496.66;5029078;28;20029;-96
2023/08/26 07:12:55;;;;;;;1.65;1.55;;;;;;;28.38;100.00;99485.22;5015899;28;20086;-94
2023/08/26 07:15:21;;;;;;;5.13;1.92;;;;;;;28.52;100.00;99501.53;5016828;28;20387;-95
2023/08/26 07:17:46;;;;;;;2.28;1.92;;;;;;;28.46;100.00;99486.72;5028539;28;20603;-96
2023/08/26 07:20:12;;;;;;;1.58;1.48;;;;;;;28.60;100.00;99479.44;5029566;28;21422;-96
2023/08/26 07:22:38;;;;;;;3.03;1.92;;;;;;;28.69;100.00;99493.13;5024312;28;20048;-96
2023/08/26 07:25:05;;;;;;;2.00;1.90;;;;;;;28.98;100.00;99501.38;5026499;28;20517;-95
2023/08/26 07:27:30;;;;;;;2.92;1.90;;;;;;;28.93;100.00;99493.78;5010133;28;20051;-95
2023/08/26 07:29:56;;;;;;;2.92;1.70;;;;;;;29.18;100.00;99494.63;5019649;28;20482;-96
2023/08/26 07:32:21;;;;;;;1.92;1.63;;;;;;;29.40;100.00;99496.59;5024621;28;20689;-96
2023/08/26 07:34:50;;;;;;;2.08;1.27;;;;;;;29.62;100.00;99495.69;5027092;28;20144;-95
2023/08/26 07:37:16;;;;;;;0.98;0.98;;;;;;;29.92;100.00;99506.16;5018892;28;20040;-95
2023/08/26 07:39:41;;;;;;;2.35;1.92;;;;;;;30.20;96.13;99504.94;5031940;28;20025;-95
2023/08/26 07:42:07;;;;;;;3.63;2.75;;;;;;;30.01;93.97;99473.28;5018958;28;20033;-95
2023/08/26 07:44:32;;;;;;;2.63;1.88;;;;;;;30.10;95.02;99484.06;5032336;28;20021;-95
2023/08/26 07:46:58;;;;;;;2.10;1.42;;;;;;;30.50;91.68;99509.63;5015289;28;20037;-95
2023/08/26 07:49:24;;;;;;;2.10;1.88;;;;;;;30.20;92.58;99487.78;5027883;28;20087;-95
2023/08/26 07:51:49;;;;;;;5.80;2.75;;;;;;;30.23;92.59;99489.47;5032359;28;20568;-94
2023/08/26 07:54:15;;;;;;;2.20;1.55;;;;;;;30.08;93.29;99472.47;5012584;28;20048;-94
2023/08/26 07:56:41;;;;;;;2.22;1.77;;;;;;;30.08;93.88;99478.19;5048490;28;20064;-93
2023/08/26 07:59:07;;;;;;;1.65;1.52;;;;;;;30.00;92.91;99471.78;5010504;28;20040;-94
2023/08/26 08:01:32;;;;;;;2.83;2.47;;;;;;;29.81;95.21;99477.22;5021662;28;20032;-94
2023/08/26 08:03:58;;;;;;;4.07;3.08;;;;;;;29.85;97.12;99477.56;5036524;28;20041;-94
2023/08/26 08:06:24;;;;;;;2.28;1.90;;;;;;;29.93;97.83;99484.03;5030593;28;20062;-93
2023/08/26 08:08:52;;;;;;;3.35;2.53;;;;;;;30.00;95.44;99466.06;5027503;28;20517;-93
2023/08/26 08:11:18;;;;;;;1.73;1.35;;;;;;;30.28;95.01;99461.97;5010948;28;20029;-93
2023/08/26 08:13:46;;;;;;;3.58;1.98;;;;;;;30.70;91.30;99470.44;5009425;28;20048;-93
2023/08/26 08:16:11;;;;;;;2.58;1.83;;;;;;;30.97;86.94;99463.44;5028468;28;20037;-94
2023/08/26 08:21:41;;;;;;;1.77;1.67;;;;;;;31.57;82.53;99480.38;5063749;23;20393;-96
2023/08/26 08:24:07;;;;;;;1.77;1.33;;;;;;;31.67;81.52;99463.94;5009007;28;20128;-95
2023/08/26 08:26:33;;;;;;;1.80;1.60;;;;;;;32.14;78.69;99483.44;5012459;28;20125;-96
2023/08/26 08:29:01;;;;;;;5.68;2.70;;;;;;;32.13;78.17;99458.97;5010904;28;20029;-96
2023/08/26 08:31:27;;;;;;;1.77;1.63;;;;;;;32.19;74.64;99468.03;5011802;28;20128;-96
2023/08/26 08:33:53;;;;;;;2.03;1.70;;;;;;;32.20;76.54;99457.31;5008922;28;20028;-96
2023/08/26 08:36:20;;;;;;;3.17;2.00;;;;;;;32.50;76.27;99467.47;5011408;28;20033;-95
2023/08/26 08:38:48;;;;;;;2.63;1.55;;;;;;;32.51;71.56;99481.22;5014429;28;20029;-96
2023/08/26 08:41:14;;;;;;;3.55;1.95;;;;;;;32.14;73.21;99456.88;5018788;28;20033;-96
2023/08/26 08:43:45;;;;;;;3.83;2.70;;;;;;;32.56;72.34;99465.03;5011765;28;20040;-95
2023/08/26 08:46:12;;;;;;;3.47;2.63;;;;;;;32.45;71.42;99465.66;5015159;28;20037;-96
2023/08/26 08:48:38;;;;;;;1.88;1.60;;;;;;;32.49;72.25;99466.72;5004883;28;20032;-96
2023/08/26 08:51:06;;;;;;;1.75;1.63;;;;;;;32.59;70.28;99455.22;5012565;28;20037;-96
2023/08/26 08:53:32;;;;;;;0.98;0.98;;;;;;;32.91;70.75;99449.03;5028450;28;20085;-96
2023/08/26 08:56:00;;;;;;;2.28;2.10;;;;;;;33.13;65.83;99453.53;5017906;28;20075;-96
2023/08/26 08:58:27;;;;;;;2.63;2.30;;;;;;;33.25;62.14;99448.66;5018345;28;20017;-96
2023/08/26 09:00:54;;;;;;;1.30;1.20;;;;;;;33.47;62.58;99457.34;5011277;28;20037;-96
2023/08/26 09:03:22;;;;;;;1.33;1.23;;;;;;;32.88;63.50;99438.72;4996710;28;20485;-95
2023/08/26 09:05:49;;;;;;;2.80;2.15;;;;;;;33.07;62.92;99472.44;5001893;28;20039;-95
2023/08/26 09:08:17;;;;;;;1.73;1.45;;;;;;;33.04;63.22;99447.78;5016616;28;20038;-94
2023/08/26 09:10:45;;;;;;;2.42;1.92;;;;;;;33.25;62.22;99463.00;4993185;28;20075;-96
2023/08/26 09:13:12;;;;;;;5.70;2.38;;;;;;;33.16;62.47;99448.69;4995462;28;20038;-96
2023/08/26 09:15:39;;;;;;;1.38;1.27;;;;;;;32.98;64.07;99436.59;5017100;28;20025;-96
2023/08/26 09:18:10;;;;;;;2.40;2.20;;;;;;;33.38;62.99;99438.00;5008841;28;20048;-95
2023/08/26 09:20:39;;;;;;;1.90;1.75;;;;;;;33.39;62.94;99456.78;4993012;28;20196;-96
2023/08/26 09:23:06;;;;;;;2.83;2.55;;;;;;;33.50;62.34;99427.38;4991802;28;20072;-96
2023/08/26 09:25:32;;;;;;;1.13;1.13;;;;;;;33.98;62.16;99439.38;5002000;28;20088;-96
2023/08/26 09:27:59;;;;;;;2.67;1.98;;;;;;;34.35;57.92;99448.38;5019686;28;20492;-96
2023/08/26 09:30:25;;;;;;;2.10;1.65;;;;;;;34.33;57.12;99430.22;5017213;28;20050;-96
2023/08/26 09:32:52;;;;;;;2.45;1.35;;;;;;;34.35;56.51;99450.50;5024812;28;20452;-96
2023/08/26 09:35:18;;;;;;;1.08;1.05;;;;;;;34.25;55.54;99423.94;4996490;28;20030;-96
2023/08/26 09:37:48;;;;;;;1.90;1.67;;;;;;;34.27;55.32;99427.69;5013811;28;20607;-96
2023/08/26 09:40:16;;;;;;;1.70;1.42;;;;;;;34.28;54.28;99422.69;4976536;28;20506;-96
2023/08/26 09:42:42;;;;;;;1.75;1.63;;;;;;;34.25;55.85;99435.44;5013712;28;20026;-96
2023/08/26 09:45:14;;;;;;;2.28;1.13;;;;;;;33.50;58.77;99433.13;5004098;28;20096;-95
2023/08/26 09:47:40;;;;;;;2.67;2.42;;;;;;;33.89;60.06;99422.19;5017981;28;20029;-95
2023/08/26 09:50:08;;;;;;;4.18;2.17;;;;;;;34.52;58.11;99450.97;5012006;28;20038;-96
2023/08/26 09:52:47;;;;;;;1.88;1.70;;;;;;;34.12;57.64;99428.84;5000089;28;20117;-95
2023/08/26 09:55:13;;;;;;;3.38;1.58;;;;;;;34.22;56.46;99425.16;4998185;28;20657;-95
2023/08/26 09:57:39;;;;;;;2.08;1.77;;;;;;;34.32;56.07;99446.00;4994648;28;20038;-95
2023/08/26 10:00:08;;;;;;;1.55;1.45;;;;;;;34.48;54.75;99429.78;4998209;28;20042;-96
2023/08/26 10:02:49;;;;;;;3.00;1.77;;;;;;;34.91;55.25;99436.97;4999451;28;20513;-95
2023/08/26 10:05:20;;;;;;;1.70;1.60;;;;;;;35.48;52.47;99446.38;5006345;28;20045;-96
2023/08/26 10:07:50;;;;;;;3.40;2.40;;;;;;;35.41;48.91;99419.28;5021956;28;20053;-96
2023/08/26 10:10:28;;;;;;;1.38;1.27;;;;;;;35.29;50.22;99443.72;5009988;28;20077;-96
2023/08/26 10:13:01;;;;;;;2.13;1.45;;;;;;;35.36;48.78;99416.78;5023494;28;20069;-96
2023/08/26 10:15:30;;;;;;;5.15;2.85;;;;;;;35.25;48.97;99431.94;5005770;28;20038;-95
2023/08/26 10:17:57;;;;;;;2.15;2.00;;;;;;;35.20;50.59;99418.63;5002521;28;20045;-96
2023/08/26 10:20:44;;;;;;;1.65;1.55;;;;;;;35.24;49.63;99407.38;5029441;28;20080;-96
2023/08/26 10:23:14;;;;;;;1.50;1.40;;;;;;;34.88;49.54;99403.66;5018578;28;20524;-96
2023/08/26 10:25:41;;;;;;;4.90;2.20;;;;;;;34.98;50.16;99404.28;5029416;28;20045;-95
2023/08/26 10:47:43;;;;;;;1.35;1.25;;;;;;;36.52;43.86;99405.03;5038568;28;20061;-96
2023/08/26 10:50:22;;;;;;;2.17;1.73;;;;;;;36.40;45.09;99404.34;5007453;28;20034;-96
2023/08/26 10:52:56;;;;;;;2.60;2.38;;;;;;;36.70;45.68;99385.88;5020625;28;20398;-96
2023/08/26 10:55:32;;;;;;;2.08;1.70;;;;;;;36.54;44.62;99382.06;5013130;28;20499;-96
2023/08/26 10:58:09;;;;;;;1.25;1.15;;;;;;;36.73;44.45;99393.28;5043087;28;20053;-95
2023/08/26 11:00:41;;;;;;;2.17;1.83;;;;;;;36.83;43.98;99390.97;5033345;28;20047;-95
2023/08/26 11:03:11;;;;;;;1.65;1.45;;;;;;;36.53;42.50;99397.88;4999128;28;20052;-96
2023/08/26 11:05:37;;;;;;;2.83;1.75;;;;;;;36.66;43.22;99376.25;4991846;28;20509;-96
2023/08/26 11:08:04;;;;;;;2.05;1.80;;;;;;;37.10;41.90;99380.88;4996591;28;20098;-96
2023/08/26 11:10:35;;;;;;;2.80;1.88;;;;;;;37.47;40.85;99395.16;4995029;28;20603;-95
2023/08/26 11:13:01;;;;;;;1.30;1.20;;;;;;;37.56;39.98;99397.88;4994478;28;20038;-95
2023/08/26 11:15:32;;;;;;;1.77;1.65;;;;;;;37.38;41.99;99376.63;4993820;28;20341;-95
2023/08/26 11:17:58;;;;;;;1.77;1.42;;;;;;;37.81;40.69;99388.34;4990640;28;20208;-95
2023/08/26 11:20:24;;;;;;;1.58;1.45;;;;;;;37.28;40.50;99390.56;4988852;28;20593;-94
2023/08/26 11:22:50;;;;;;;1.50;1.30;;;;;;;37.10;40.85;99387.41;4991315;28;20397;-96
2023/08/26 11:25:17;;;;;;;1.63;1.52;;;;;;;37.30;40.89;99370.41;4985887;28;20037;-96
2023/08/26 11:27:43;;;;;;;1.75;1.65;;;;;;;37.72;39.82;99377.72;4990840;28;20029;-96
2023/08/26 11:30:10;;;;;;;1.45;1.35;;;;;;;37.92;37.99;99378.03;5005009;28;20053;-96
2023/08/26 11:32:37;;;;;;;1.67;1.58;;;;;;;37.94;37.97;99375.22;4984908;28;20025;-96
2023/08/26 11:35:08;;;;;;;1.73;1.58;;;;;;;38.24;37.84;99383.34;4987888;28;20042;-96
2023/08/26 11:37:41;;;;;;;1.60;1.50;;;;;;;38.02;37.26;99372.75;4981834;28;20041;-96
2023/08/26 11:40:08;;;;;;;2.55;1.58;;;;;;;38.28;37.21;99379.91;5005654;28;20044;-95
2023/08/26 11:42:34;;;;;;;4.57;1.88;;;;;;;38.40;38.04;99366.00;4992490;28;20133;-96
2023/08/26 11:45:00;;;;;;;1.90;1.50;;;;;;;38.61;36.87;99371.44;5022438;28;20037;-96
2023/08/26 11:47:26;;;;;;;2.65;1.25;;;;;;;38.82;37.01;99363.72;4997268;28;20045;-96
2023/08/26 11:49:56;;;;;;;2.55;2.08;;;;;;;38.90;35.35;99387.31;5008311;28;20045;-96
2023/08/26 11:52:34;;;;;;;1.35;1.25;;;;;;;38.66;36.13;99366.59;4992671;28;20034;-96
2023/08/26 11:55:02;;;;;;;1.88;1.70;;;;;;;38.91;35.75;99383.75;5006940;28;20111;-95
2023/08/26 11:57:28;;;;;;;2.63;1.92;;;;;;;38.64;34.82;99361.44;4993020;28;20030;-95
2023/08/26 12:00:16;;;;;;;2.53;1.98;;;;;;;38.62;35.32;99369.28;4994856;28;20049;-95
2023/08/26 12:02:49;;;;;;;1.15;1.05;;;;;;;38.41;35.68;99361.75;4993903;28;20121;-95
2023/08/26 12:05:15;;;;;;;1.17;1.17;;;;;;;38.47;35.84;99359.13;4994295;28;20041;-95
2023/08/26 12:07:45;;;;;;;1.52;1.40;;;;;;;38.50;35.32;99369.41;4995137;28;20056;-96
2023/08/26 12:10:12;;;;;;;2.05;1.38;;;;;;;38.23;35.98;99369.50;4992573;28;20049;-96
2023/08/26 12:12:39;;;;;;;1.55;1.45;;;;;;;37.99;36.30;99356.69;5023936;28;20077;-95
2023/08/26 12:15:09;;;;;;;2.35;1.45;;;;;;;38.02;36.22;99376.41;5006523;28;20040;-95
2023/08/26 12:18:02;;;;;;;1.65;1.55;;;;;;;37.97;36.86;99354.47;5002799;28;20052;-95
2023/08/26 12:20:29;;;;;;;1.58;1.45;;;;;;;38.02;36.11;99355.41;5012675;28;20510;-96
2023/08/26 12:22:58;;;;;;;2.22;1.15;;;;;;;38.07;35.75;99380.28;5007096;28;20041;-96
2023/08/26 12:25:33;;;;;;;2.00;1.80;;;;;;;38.05;36.08;99342.53;4998578;28;20041;-96
2023/08/26 12:28:08;;;;;;;1.45;1.30;;;;;;;38.50;35.90;99363.63;4995157;28;20287;-95
2023/08/26 12:30:35;;;;;;;1.10;0.93;;;;;;;38.57;35.42;99367.59;5007771;28;20069;-96
2023/08/26 12:33:00;;;;;;;1.50;1.35;;;;;;;38.12;35.91;99347.97;4991945;28;20042;-96
2023/08/26 12:35:26;;;;;;;1.20;1.10;;;;;;;38.22;36.18;99351.38;5007907;28;20080;-96
2023/08/26 12:37:52;;;;;;;1.17;1.10;;;;;;;38.12;36.81;99353.03;5015566;28;20045;-96
2023/08/26 12:40:18;;;;;;;2.42;1.98;;;;;;;38.20;36.06;99331.00;5004752;28;20077;-96
2023/08/26 12:42:44;;;;;;;1.23;1.15;;;;;;;38.19;35.21;99328.75;5011886;28;20034;-96
2023/08/26 12:45:10;;;;;;;2.00;1.38;;;;;;;38.11;35.49;99334.91;4996394;28;20412;-96
2023/08/26 12:47:35;;;;;;;1.30;1.20;;;;;;;38.39;35.35;99344.22;4996828;28;20061;-95
2023/08/26 12:50:03;;;;;;;2.20;1.45;;;;;;;38.54;35.47;99342.81;5002511;28;20075;-96
2023/08/26 12:52:29;;;;;;;1.42;1.33;;;;;;;38.84;34.77;99355.09;4994565;28;20094;-95
2023/08/26 12:54:55;;;;;;;1.33;1.23;;;;;;;38.80;34.21;99355.66;4993838;28;20568;-96
2023/08/26 12:57:21;;;;;;;1.20;1.10;;;;;;;38.70;33.04;99346.50;4993077;28;20121;-96
2023/08/26 12:59:47;;;;;;;0.82;0.82;;;;;;;38.95;32.92;99351.28;4988202;28;20045;-95
2023/08/26 13:02:13;;;;;;;0.88;0.88;;;;;;;38.85;32.50;99351.56;4984623;28;20045;-95
2023/08/26 13:04:38;;;;;;;1.30;1.20;;;;;;;39.07;33.48;99349.69;4996452;28;20148;-95
2023/08/26 13:07:07;;;;;;;11.02;2.10;;;;;;;39.12;32.29;99341.94;4991884;28;20078;-95
2023/08/26 13:09:33;;;;;;;1.55;1.45;;;;;;;39.12;32.74;99339.03;5005714;28;20108;-94
2023/08/26 13:11:59;;;;;;;1.35;1.27;;;;;;;38.85;31.93;99325.50;4980641;28;20223;-96